HECA METAR and TAF | Updated Today

HECA METAR

Cairo International Airport

Observation time: 8 min. ago

HECA 241730Z 32010KT CAVOK 29/08 Q1012 NOSIG

Need help? Read our tutorial on how to read METARs or read the parsed version below.

Cairo International Airport (HECA) METAR

  • Weather conditions on Tue, 24 May 2022 17:30:00 +0000 (8 min. ago):
  • Present conditions: Dry
  • Clouds: Clear skies
  • Visibility: Greater than 10 km
  • Wind: 320 degrees at 10 knots
  • Temperature: 29 celsius
  • Dew point: 8 celsius
  • Pressure: 1012 millibars
  • Remarks: None


Useful to know...

HECA TAF

Cairo International Airport

TAF HECA 241100Z 2412/2518 28009KT CAVOK TEMPO 2412/2418 4000 HZ NSC
Observation time: 6:38 hr. ago
Need help? Read our tutorial on how to read TAFs or read the parsed version below.

Parsed version of TAF for Cairo International Airport (HECA)

  • From 24 May at 12:00 UTC, to day 25 of the month at 18:00 UTC
  • Visibility: Greater than 10 km
  • Wind: 280 degrees at 9
  • Expected to arise temporarily, from 24 May at 12:00 UTC, to day 24 of the month at 18:00 UTC
  • Clouds: No significant clouds are observed
  • Visibility: 4000 meters
  • Other: Haze

Airports near HECA